Archival Weather

Chicago O'Hare International

Chicago, Illinois (KORD)

Report from: Monday, December 12, 2022 10:51 PM CST
Current time: Friday, June 21, 2024 4:03 AM CDT

Current weather – Weather history – Daily summaries
Weather forecast

Temperature2.8°C (37.0°F)
Wind chill-1.5°C (29.3°F)
Dew point-2.2°C (28.0°F)
Winds 10 kts (5.1 m/s, 11.5 mph) Southeast (130°)
Visibility10 mi. (16.1 km)
Clouds Ceiling: Overcast 2,500 ft. (762 m)
Altimeter30.27 in.Hg (1025 mB)
Relative humidity70 %
Density altitude-1,817 ft. (-554 m)
Sea-level pressure102.6 kPa (1026 mB, 30.28 in.Hg)
Remarks Automated weather observing station with precipitation discriminator
Flight conditions Marginal Visual Meteorological Conditions
Raw dataKORD 130451Z 13010KT 10SM OVC025 03/M02 A3027 RMK AO2 SLP255 T00281022
An error has occurred. This application may no longer respond until reloaded. Reload 🗙